Time;durP1;ratioP1;P1;durP2;ratioP2;P2;SDS_P1;SDS_P2;PMS_P1;PMS_P2;Temp;Humidity;BMP_temperature;BMP_pressure;BME280_temperature;BME280_humidity;BME280_pressure;Samples;Min_cycle;Max_cycle;Signal;HPM_P1;HPM_P2
2023/10/19 00:02:15;;;;;;;31.95;25.70;;;10.80;99.90;;;;;;7372714;19;20390;-70
2023/10/19 00:04:45;;;;;;;41.00;29.42;;;10.70;99.90;;;;;;7372089;19;20030;-70
2023/10/19 00:07:16;;;;;;;33.15;26.23;;;10.80;99.90;;;;;;7370970;19;20007;-70
2023/10/19 00:09:47;;;;;;;36.47;27.35;;;10.80;99.90;;;;;;7370075;19;20054;-70
2023/10/19 00:12:21;;;;;;;32.35;26.23;;;10.80;99.90;;;;;;7371457;19;20107;-70
2023/10/19 00:14:49;;;;;;;32.47;27.15;;;10.80;99.90;;;;;;7372213;19;20082;-70
2023/10/19 00:17:20;;;;;;;35.17;27.52;;;10.80;99.90;;;;;;7371338;19;20086;-69
2023/10/19 00:19:57;;;;;;;32.55;26.67;;;10.80;99.90;;;;;;7370819;19;20010;-69
2023/10/19 00:22:30;;;;;;;35.55;27.48;;;10.80;99.90;;;;;;7371109;19;20389;-70
2023/10/19 00:25:02;;;;;;;37.38;28.25;;;10.80;99.90;;;;;;7371758;19;20455;-69
2023/10/19 00:27:31;;;;;;;36.45;27.92;;;10.80;99.90;;;;;;7376495;19;20488;-68
2023/10/19 00:30:06;;;;;;;34.60;27.00;;;10.90;99.90;;;;;;7377310;19;20608;-68
2023/10/19 00:32:38;;;;;;;38.30;26.33;;;10.90;99.90;;;;;;7377879;19;20036;-70
2023/10/19 00:35:27;;;;;;;38.15;28.02;;;10.90;99.90;;;;;;7379780;19;20015;-69
2023/10/19 00:38:19;;;;;;;36.63;27.58;;;10.90;99.90;;;;;;6866988;19;2004620;-70
2023/10/19 00:40:53;;;;;;;36.55;28.38;;;10.90;99.90;;;;;;7376872;19;20010;-71
2023/10/19 00:43:34;;;;;;;35.38;27.30;;;10.90;99.90;;;;;;7378927;19;20455;-69
2023/10/19 00:46:09;;;;;;;33.17;26.77;;;10.90;99.90;;;;;;7379527;19;20015;-70
2023/10/19 00:48:40;;;;;;;33.30;26.48;;;10.90;99.90;;;;;;7375970;19;20007;-71
2023/10/19 00:51:26;;;;;;;32.05;26.13;;;10.90;99.90;;;;;;7375972;19;20094;-70
2023/10/19 00:53:58;;;;;;;36.83;27.77;;;10.90;99.90;;;;;;6867002;19;2005087;-70
2023/10/19 00:56:31;;;;;;;36.13;26.98;;;11.00;99.90;;;;;;7375923;19;20010;-70
2023/10/19 00:59:12;;;;;;;39.57;28.33;;;11.00;99.90;;;;;;7377174;19;20030;-70
2023/10/19 01:01:44;;;;;;;35.80;26.95;;;11.00;99.90;;;;;;7374710;19;20018;-70
2023/10/19 01:04:16;;;;;;;36.00;26.38;;;11.00;99.90;;;;;;7378106;19;20031;-70
2023/10/19 01:07:00;;;;;;;34.95;26.27;;;11.00;99.90;;;;;;7375370;19;20546;-68
2023/10/19 01:09:34;;;;;;;32.95;26.17;;;11.10;99.90;;;;;;7377341;19;20051;-69
2023/10/19 01:12:21;;;;;;;33.90;26.13;;;11.10;99.90;;;;;;7376710;19;20376;-68
2023/10/19 01:15:06;;;;;;;38.08;25.52;;;11.10;99.90;;;;;;7371650;19;20448;-69
2023/10/19 01:17:38;;;;;;;36.25;26.80;;;11.10;99.90;;;;;;7375162;19;20006;-69
2023/10/19 01:23:20;;;;;;;37.28;26.75;;;11.20;99.90;;;;;;6865916;19;2004572;-69
2023/10/19 01:25:59;;;;;;;34.88;26.55;;;11.20;99.90;;;;;;7369526;19;20035;-70
2023/10/19 01:28:42;;;;;;;38.55;27.10;;;11.30;99.90;;;;;;7375045;19;20487;-69
2023/10/19 01:31:16;;;;;;;30.73;24.35;;;11.30;99.90;;;;;;7374519;19;20089;-69
2023/10/19 01:33:47;;;;;;;;;;;11.30;99.90;;;;;;7377412;19;20011;-69
2023/10/19 01:36:15;;;;;;;32.53;24.40;;;11.30;99.90;;;;;;7376069;19;19923;-69
2023/10/19 01:38:48;;;;;;;31.17;24.30;;;11.30;99.90;;;;;;7370849;19;20014;-70
2023/10/19 01:41:18;;;;;;;36.35;26.40;;;11.30;99.90;;;;;;7375461;19;20010;-69
2023/10/19 01:43:53;;;;;;;34.75;24.52;;;11.30;99.90;;;;;;7376219;19;20011;-70
2023/10/19 01:46:23;;;;;;;32.85;25.33;;;11.30;99.90;;;;;;7376537;19;20050;-69
2023/10/19 01:48:56;;;;;;;34.00;24.60;;;11.30;99.90;;;;;;7375813;19;20131;-70
2023/10/19 01:51:26;;;;;;;30.17;23.20;;;11.40;99.90;;;;;;7376210;19;20017;-69
2023/10/19 01:54:00;;;;;;;33.22;24.58;;;11.30;99.90;;;;;;7376217;19;20384;-70
2023/10/19 01:56:28;;;;;;;33.13;23.77;;;11.40;99.90;;;;;;7375205;19;20039;-70
2023/10/19 01:58:59;;;;;;;34.17;24.33;;;11.40;99.90;;;;;;7376266;19;20017;-70
2023/10/19 02:01:28;;;;;;;30.20;24.40;;;11.40;99.90;;;;;;7375888;19;20010;-70
2023/10/19 02:04:03;;;;;;;30.95;23.20;;;11.40;99.90;;;;;;7375088;19;20007;-69
2023/10/19 02:06:35;;;;;;;35.55;24.50;;;11.40;99.90;;;;;;7375813;19;20030;-69
2023/10/19 02:09:17;;;;;;;28.48;22.48;;;11.50;99.90;;;;;;7374156;19;20094;-70
2023/10/19 02:11:46;;;;;;;32.60;24.20;;;11.50;99.90;;;;;;7371643;19;20058;-70
2023/10/19 02:14:18;;;;;;;27.88;21.80;;;11.50;99.90;;;;;;7374990;19;20022;-70
2023/10/19 02:16:51;;;;;;;27.70;22.00;;;11.50;99.90;;;;;;7373531;19;20050;-69
2023/10/19 02:19:22;;;;;;;32.92;23.02;;;11.50;99.90;;;;;;7375695;19;20499;-70
2023/10/19 02:21:54;;;;;;;29.63;23.05;;;11.50;99.90;;;;;;7375304;19;20814;-70
2023/10/19 02:24:27;;;;;;;28.00;22.10;;;11.50;99.90;;;;;;7375215;19;20018;-69
2023/10/19 02:26:55;;;;;;;35.05;25.10;;;11.50;99.90;;;;;;7374412;19;20032;-70
2023/10/19 02:29:26;;;;;;;29.30;23.70;;;11.50;99.90;;;;;;7372008;19;20022;-70
2023/10/19 02:31:54;;;;;;;32.83;25.25;;;11.50;99.90;;;;;;7375099;19;20014;-70
2023/10/19 02:34:25;;;;;;;32.47;24.05;;;11.50;99.90;;;;;;7375683;19;20114;-70
2023/10/19 02:36:53;;;;;;;32.25;23.05;;;11.50;99.90;;;;;;7373435;19;20010;-69
2023/10/19 02:39:28;;;;;;;34.72;26.05;;;11.50;99.90;;;;;;7373861;19;20041;-69
2023/10/19 02:41:56;;;;;;;33.10;24.67;;;11.50;99.90;;;;;;7374457;19;20072;-69
2023/10/19 02:44:26;;;;;;;31.02;23.35;;;11.50;99.90;;;;;;7374157;19;20014;-69
2023/10/19 02:46:58;;;;;;;31.48;24.20;;;11.50;99.90;;;;;;7374080;19;20360;-69
2023/10/19 02:49:30;;;;;;;32.72;24.27;;;11.50;99.90;;;;;;7373199;19;20022;-70
2023/10/19 02:52:03;;;;;;;32.15;23.80;;;11.50;99.90;;;;;;7374068;19;20011;-70
2023/10/19 02:54:36;;;;;;;34.28;24.05;;;11.50;99.90;;;;;;7373994;19;20663;-70
2023/10/19 02:57:06;;;;;;;33.15;24.75;;;11.50;99.90;;;;;;7374114;19;20007;-70
2023/10/19 02:59:38;;;;;;;31.00;22.95;;;11.50;99.90;;;;;;7373134;19;20010;-70
2023/10/19 03:02:16;;;;;;;32.20;23.13;;;11.50;99.90;;;;;;7373254;19;20007;-70
2023/10/19 03:04:45;;;;;;;31.70;23.25;;;11.60;99.90;;;;;;7373605;19;20030;-70
2023/10/19 03:07:18;;;;;;;33.20;25.08;;;11.50;99.90;;;;;;7373910;19;20010;-70
2023/10/19 03:09:53;;;;;;;37.05;25.17;;;11.50;99.90;;;;;;7374489;19;20022;-70
2023/10/19 03:12:25;;;;;;;33.03;23.75;;;11.40;99.90;;;;;;7374062;19;20014;-70
2023/10/19 03:14:52;;;;;;;31.50;24.23;;;11.40;99.90;;;;;;7374133;19;20031;-70
2023/10/19 03:17:24;;;;;;;32.42;23.73;;;11.30;99.90;;;;;;7372155;19;20182;-69
2023/10/19 03:19:55;;;;;;;38.20;24.48;;;11.30;99.90;;;;;;7374231;19;20018;-70
2023/10/19 03:22:23;;;;;;;38.67;24.23;;;11.20;99.90;;;;;;7401901;19;20025;-70
2023/10/19 03:25:11;;;;;;;35.03;25.17;;;11.10;99.90;;;;;;7375012;19;20018;-69
2023/10/19 03:27:38;;;;;;;34.63;23.85;;;11.10;99.90;;;;;;7374365;19;20073;-69
2023/10/19 03:30:14;;;;;;;31.30;23.67;;;11.10;99.90;;;;;;7372698;19;20898;-69
2023/10/19 03:32:44;;;;;;;41.20;27.85;;;11.10;99.90;;;;;;7365182;19;20026;-69
2023/10/19 03:35:15;;;;;;;33.10;23.40;;;11.10;99.90;;;;;;7374586;19;20014;-70
2023/10/19 03:37:48;;;;;;;33.45;25.30;;;11.00;99.90;;;;;;7374176;19;20552;-69
2023/10/19 03:40:29;;;;;;;34.15;24.23;;;11.00;99.90;;;;;;7374669;19;20368;-70
2023/10/19 03:42:59;;;;;;;31.65;23.00;;;11.10;99.90;;;;;;7372799;19;20014;-70
2023/10/19 03:45:33;;;;;;;36.47;25.08;;;11.20;99.90;;;;;;7374571;19;20016;-69
2023/10/19 03:48:08;;;;;;;30.42;23.42;;;11.20;99.90;;;;;;7372656;19;21021;-69
2023/10/19 03:50:40;;;;;;;34.08;23.63;;;11.30;99.90;;;;;;7373791;19;20101;-69
2023/10/19 03:53:12;;;;;;;33.03;23.73;;;11.40;99.90;;;;;;7374548;19;20014;-69
2023/10/19 03:55:47;;;;;;;31.23;22.52;;;11.30;99.90;;;;;;7373666;19;20010;-70
2023/10/19 03:58:20;;;;;;;28.55;21.75;;;11.30;99.90;;;;;;7370612;19;20014;-70
2023/10/19 04:00:51;;;;;;;32.15;21.65;;;11.40;99.90;;;;;;7371031;19;20035;-69
2023/10/19 04:03:24;;;;;;;30.75;20.88;;;11.40;99.90;;;;;;7373993;19;20025;-69
2023/10/19 04:05:55;;;;;;;27.88;20.83;;;11.40;99.90;;;;;;7372223;19;20011;-69
2023/10/19 04:08:26;;;;;;;29.00;20.30;;;11.50;99.90;;;;;;7371645;19;20328;-69
2023/10/19 04:11:11;;;;;;;25.48;19.27;;;11.50;99.90;;;;;;7370504;19;20027;-70
2023/10/19 04:13:41;;;;;;;25.77;20.90;;;11.50;99.90;;;;;;7375039;19;20769;-68
2023/10/19 04:16:12;;;;;;;26.35;20.50;;;11.60;99.90;;;;;;7373441;19;20069;-68
2023/10/19 04:21:47;;;;;;;31.55;22.60;;;11.60;99.90;;;;;;7368302;19;20017;-70
2023/10/19 04:24:19;;;;;;;30.35;21.88;;;11.60;99.90;;;;;;7374571;19;20014;-69
2023/10/19 04:26:51;;;;;;;28.80;21.35;;;11.50;99.90;;;;;;7371263;19;20338;-69
2023/10/19 04:29:27;;;;;;;30.80;22.30;;;11.60;99.90;;;;;;7373246;19;20074;-69
2023/10/19 04:31:58;;;;;;;26.45;20.42;;;11.50;99.90;;;;;;7374084;19;20017;-69
2023/10/19 04:34:29;;;;;;;29.27;20.85;;;11.50;99.90;;;;;;7374652;19;20014;-68
2023/10/19 04:36:59;;;;;;;30.27;21.40;;;11.50;99.90;;;;;;7371802;19;20110;-69
2023/10/19 04:39:30;;;;;;;29.42;20.13;;;11.50;99.90;;;;;;7372249;19;20398;-70
2023/10/19 04:42:04;;;;;;;25.60;20.65;;;11.40;99.90;;;;;;7373547;19;20296;-70
2023/10/19 04:44:34;;;;;;;29.80;21.10;;;11.50;99.90;;;;;;7375570;19;20125;-69
2023/10/19 04:47:04;;;;;;;32.53;22.60;;;11.40;99.90;;;;;;7371338;19;20495;-70
2023/10/19 04:49:34;;;;;;;31.63;22.05;;;11.40;99.90;;;;;;7372683;19;20034;-69
2023/10/19 04:52:04;;;;;;;29.05;20.30;;;11.30;99.90;;;;;;7373767;19;20090;-70
2023/10/19 04:54:34;;;;;;;26.90;20.80;;;11.30;99.90;;;;;;7374244;19;20026;-70
2023/10/19 04:57:06;;;;;;;31.83;21.73;;;11.20;99.90;;;;;;7372376;19;20526;-70
2023/10/19 04:59:36;;;;;;;35.70;21.38;;;11.10;99.90;;;;;;7373160;19;20014;-70
2023/10/19 05:02:06;;;;;;;28.15;21.13;;;11.00;99.90;;;;;;7373786;19;20024;-70
2023/10/19 05:04:36;;;;;;;31.92;22.48;;;11.10;99.90;;;;;;7373610;19;20015;-70
2023/10/19 05:07:06;;;;;;;33.47;22.95;;;11.10;99.90;;;;;;7372358;19;20889;-70
2023/10/19 05:09:38;;;;;;;30.40;21.60;;;11.00;99.90;;;;;;7371518;19;20030;-70
2023/10/19 05:12:11;;;;;;;32.10;22.23;;;10.90;99.90;;;;;;7374681;19;20082;-70
2023/10/19 05:14:42;;;;;;;28.58;21.55;;;10.90;99.90;;;;;;7381336;19;20011;-71
2023/10/19 05:17:13;;;;;;;30.27;21.08;;;10.80;99.90;;;;;;7375940;19;20025;-69
2023/10/19 05:19:44;;;;;;;33.50;21.42;;;10.80;99.90;;;;;;7377791;19;20018;-68
2023/10/19 05:22:14;;;;;;;28.25;20.38;;;10.80;99.90;;;;;;7376986;19;20006;-69
2023/10/19 05:24:44;;;;;;;28.63;21.73;;;10.80;99.90;;;;;;7375392;19;20014;-69
2023/10/19 05:27:17;;;;;;;32.78;23.13;;;10.80;99.90;;;;;;7377973;19;20036;-69
2023/10/19 05:29:47;;;;;;;34.53;22.38;;;10.80;99.90;;;;;;7374239;19;20021;-69
2023/10/19 05:32:17;;;;;;;33.78;23.88;;;10.80;99.90;;;;;;7378694;19;20026;-69
2023/10/19 05:34:48;;;;;;;31.90;23.58;;;10.80;99.90;;;;;;7377050;19;20076;-69
2023/10/19 05:37:18;;;;;;;35.92;24.25;;;10.70;99.90;;;;;;7377880;19;20014;-70
2023/10/19 05:39:51;;;;;;;30.95;22.42;;;10.60;99.90;;;;;;7376151;19;20431;-68
2023/10/19 05:42:24;;;;;;;30.93;22.50;;;10.70;99.90;;;;;;7379607;19;20014;-69
2023/10/19 05:44:54;;;;;;;26.42;20.50;;;10.70;99.90;;;;;;7377124;19;20017;-69
2023/10/19 05:47:24;;;;;;;43.28;23.17;;;10.80;99.90;;;;;;7375140;19;20011;-69
2023/10/19 05:49:55;;;;;;;30.23;20.83;;;11.00;99.90;;;;;;7377017;19;20006;-69
2023/10/19 05:52:25;;;;;;;25.33;19.52;;;11.10;99.90;;;;;;7378442;19;20003;-69
2023/10/19 05:54:57;;;;;;;29.77;21.20;;;11.10;99.90;;;;;;7376791;19;20027;-69
2023/10/19 05:57:29;;;;;;;30.50;21.67;;;11.10;99.90;;;;;;7378839;19;20013;-69
2023/10/19 05:59:59;;;;;;;32.40;21.30;;;11.10;99.90;;;;;;7377342;19;20225;-71
2023/10/19 06:02:29;;;;;;;32.05;22.15;;;11.20;99.90;;;;;;7377425;19;20010;-71
2023/10/19 06:05:04;;;;;;;29.90;21.73;;;11.20;99.90;;;;;;7374847;19;20139;-70
2023/10/19 06:07:34;;;;;;;30.98;21.80;;;11.20;99.90;;;;;;7376640;19;20038;-70
2023/10/19 06:10:06;;;;;;;31.30;22.52;;;11.30;99.90;;;;;;7377360;19;20022;-70
2023/10/19 06:12:40;;;;;;;29.17;20.83;;;11.40;99.90;;;;;;7379711;19;20010;-71
2023/10/19 06:15:11;;;;;;;32.03;21.93;;;11.50;99.90;;;;;;7375962;19;20018;-70
2023/10/19 06:17:42;;;;;;;29.35;20.98;;;11.60;99.90;;;;;;7375277;19;20284;-70
2023/10/19 06:20:19;;;;;;;29.13;21.65;;;11.60;99.90;;;;;;7375563;19;20011;-70
2023/10/19 06:22:51;;;;;;;31.58;22.35;;;11.70;99.90;;;;;;7371474;19;20050;-71
2023/10/19 06:25:21;;;;;;;28.55;20.60;;;11.80;99.90;;;;;;7370996;19;20527;-70
2023/10/19 06:27:57;;;;;;;28.60;20.40;;;11.80;99.90;;;;;;7372848;19;20615;-70
2023/10/19 06:30:28;;;;;;;32.65;22.13;;;11.90;99.90;;;;;;7372926;19;20377;-69
2023/10/19 06:33:00;;;;;;;25.23;20.10;;;11.90;99.90;;;;;;7372086;19;20492;-70
2023/10/19 06:35:32;;;;;;;28.73;21.45;;;12.00;99.90;;;;;;7375961;19;20389;-70
2023/10/19 06:38:03;;;;;;;34.38;20.75;;;12.00;99.90;;;;;;7374489;19;20007;-70
2023/10/19 06:40:36;;;;;;;26.77;20.15;;;12.00;99.90;;;;;;7377541;19;20602;-69
2023/10/19 06:43:09;;;;;;;25.25;19.33;;;12.10;99.90;;;;;;7376240;19;20014;-70
2023/10/19 06:45:39;;;;;;;25.65;18.50;;;12.10;99.90;;;;;;7375820;19;20027;-71
2023/10/19 06:48:09;;;;;;;24.15;18.10;;;12.10;99.90;;;;;;7375358;19;20007;-71
2023/10/19 06:50:41;;;;;;;22.00;17.52;;;12.20;99.90;;;;;;7378124;19;20023;-71
2023/10/19 06:53:16;;;;;;;25.85;18.33;;;12.30;99.90;;;;;;7388653;19;20010;-71
2023/10/19 06:55:46;;;;;;;22.95;16.77;;;12.30;99.90;;;;;;7381765;19;20010;-70
2023/10/19 06:58:20;;;;;;;23.23;17.15;;;12.50;99.90;;;;;;7375466;19;20010;-69
2023/10/19 07:00:56;;;;;;;22.55;18.10;;;12.50;99.90;;;;;;7376087;19;20014;-70
2023/10/19 07:03:28;;;;;;;24.40;18.63;;;12.60;99.90;;;;;;7376083;19;20026;-71
2023/10/19 07:05:59;;;;;;;21.10;17.10;;;12.70;99.90;;;;;;7374655;19;20033;-70
2023/10/19 07:08:30;;;;;;;20.55;16.58;;;12.80;99.90;;;;;;7374863;19;20371;-70
2023/10/19 07:10:59;;;;;;;27.70;17.40;;;12.80;99.90;;;;;;7374630;19;20419;-71
2023/10/19 07:13:33;;;;;;;17.98;13.88;;;12.90;99.90;;;;;;7375732;19;20015;-70
2023/10/19 07:16:04;;;;;;;20.73;14.82;;;12.90;99.90;;;;;;7375176;19;20045;-70
2023/10/19 07:18:34;;;;;;;19.23;13.77;;;12.90;99.90;;;;;;7373303;19;20018;-70
2023/10/19 07:21:05;;;;;;;14.25;11.85;;;12.90;99.90;;;;;;7375186;19;20006;-69
2023/10/19 07:23:37;;;;;;;19.85;13.32;;;12.90;99.90;;;;;;7374468;19;20028;-70
2023/10/19 07:26:07;;;;;;;17.90;12.63;;;12.90;99.90;;;;;;7373321;19;20014;-71
2023/10/19 07:28:40;;;;;;;21.52;17.10;;;12.90;99.90;;;;;;7372707;19;20035;-71
2023/10/19 07:31:15;;;;;;;17.17;12.80;;;13.00;99.90;;;;;;7371868;19;20017;-70
2023/10/19 07:33:45;;;;;;;18.70;12.85;;;13.00;99.90;;;;;;7376208;19;20006;-70
2023/10/19 07:36:18;;;;;;;16.73;12.80;;;13.00;99.90;;;;;;7365912;19;20103;-70
2023/10/19 07:38:49;;;;;;;20.33;12.73;;;13.20;99.90;;;;;;7373311;19;20376;-70
2023/10/19 07:41:20;;;;;;;17.23;13.18;;;13.20;99.90;;;;;;7374444;19;20095;-70
2023/10/19 07:43:52;;;;;;;20.45;12.63;;;13.20;99.90;;;;;;7373638;19;20017;-70
2023/10/19 07:46:21;;;;;;;15.10;12.20;;;13.30;99.90;;;;;;7373201;19;20013;-69
2023/10/19 07:48:52;;;;;;;15.38;10.65;;;13.40;99.90;;;;;;7371824;19;20018;-70
2023/10/19 07:51:22;;;;;;;15.50;12.05;;;13.30;99.90;;;;;;7374535;19;20013;-69
2023/10/19 07:53:52;;;;;;;15.48;12.45;;;13.40;99.90;;;;;;7374739;19;20372;-70
2023/10/19 07:56:22;;;;;;;19.58;14.23;;;13.50;99.90;;;;;;7373280;19;20014;-70
2023/10/19 07:58:55;;;;;;;19.98;13.50;;;13.50;99.90;;;;;;7373737;19;20098;-71
2023/10/19 08:01:25;;;;;;;14.70;12.02;;;13.60;99.90;;;;;;7375483;19;20015;-71
2023/10/19 08:03:55;;;;;;;13.20;11.48;;;13.60;99.90;;;;;;7376939;19;20015;-70
2023/10/19 08:06:26;;;;;;;16.33;11.68;;;13.70;99.90;;;;;;7373629;19;20006;-70
2023/10/19 08:08:56;;;;;;;13.30;11.13;;;13.70;99.90;;;;;;7373633;19;20006;-70
2023/10/19 08:11:26;;;;;;;12.48;10.52;;;13.70;99.90;;;;;;7373423;19;20691;-71
2023/10/19 08:13:59;;;;;;;15.57;11.35;;;13.80;99.90;;;;;;7372585;19;20794;-71
2023/10/19 08:16:29;;;;;;;14.50;11.23;;;13.90;99.90;;;;;;7372878;19;20405;-71
2023/10/19 08:19:00;;;;;;;14.85;10.32;;;14.00;99.90;;;;;;7372811;19;20021;-71
2023/10/19 08:21:30;;;;;;;13.57;10.20;;;14.10;99.90;;;;;;7373888;19;20011;-70
2023/10/19 08:24:04;;;;;;;12.45;10.27;;;13.90;99.90;;;;;;7373193;19;20482;-70
2023/10/19 08:26:35;;;;;;;17.50;10.90;;;14.00;99.90;;;;;;7373626;19;20018;-70
2023/10/19 08:29:12;;;;;;;13.05;10.05;;;14.10;99.90;;;;;;7374039;19;20007;-71
2023/10/19 08:31:44;;;;;;;12.80;10.18;;;14.30;99.90;;;;;;7373591;19;20159;-71
2023/10/19 08:34:15;;;;;;;11.48;10.27;;;14.50;99.90;;;;;;7375669;19;20029;-70
2023/10/19 08:36:45;;;;;;;12.75;10.05;;;14.60;94.80;;;;;;7375932;19;20337;-70
2023/10/19 08:39:15;;;;;;;11.75;9.27;;;14.70;83.10;;;;;;7375035;19;20086;-71
2023/10/19 08:41:48;;;;;;;11.70;9.23;;;14.90;79.90;;;;;;7374218;19;20067;-69
2023/10/19 08:44:20;;;;;;;11.90;9.82;;;15.00;59.00;;;;;;7371763;19;20539;-71
2023/10/19 08:46:51;;;;;;;12.60;9.27;;;15.20;61.00;;;;;;7372852;19;20064;-70
2023/10/19 08:49:22;;;;;;;13.57;9.25;;;15.30;56.00;;;;;;7381140;19;20074;-71
2023/10/19 08:51:54;;;;;;;10.20;7.97;;;15.50;47.20;;;;;;7381485;19;20074;-71
2023/10/19 08:54:25;;;;;;;10.98;8.20;;;15.40;35.40;;;;;;7381061;19;20152;-70
2023/10/19 08:56:55;;;;;;;10.98;8.02;;;15.40;37.20;;;;;;7379213;19;20055;-71
2023/10/19 08:59:28;;;;;;;12.07;8.13;;;15.40;38.10;;;;;;7379171;19;20097;-71
2023/10/19 09:02:05;;;;;;;10.88;7.70;;;15.50;32.50;;;;;;7380085;19;20013;-69
2023/10/19 09:04:35;;;;;;;10.40;8.07;;;15.60;33.00;;;;;;7379560;19;20010;-71
2023/10/19 09:07:10;;;;;;;8.98;7.65;;;15.90;34.50;;;;;;7379014;19;20460;-71
2023/10/19 09:09:41;;;;;;;10.43;7.35;;;15.90;24.30;;;;;;7379319;19;20025;-71
2023/10/19 09:12:13;;;;;;;11.52;6.40;;;15.90;26.10;;;;;;7380088;19;20018;-70
2023/10/19 09:14:46;;;;;;;8.18;6.70;;;16.00;27.30;;;;;;7380323;19;20022;-70
2023/10/19 09:17:17;;;;;;;7.70;6.22;;;16.10;24.90;;;;;;7375605;19;20089;-71
2023/10/19 09:19:49;;;;;;;10.00;6.43;;;16.40;19.30;;;;;;7375988;19;20006;-70
2023/10/19 09:22:22;;;;;;;12.55;6.65;;;16.60;16.60;;;;;;7378642;19;20010;-70
2023/10/19 09:24:53;;;;;;;9.27;6.40;;;16.60;12.70;;;;;;7379452;19;20029;-70
2023/10/19 09:27:23;;;;;;;7.85;5.88;;;16.60;5.80;;;;;;7378563;19;20066;-70
2023/10/19 09:29:56;;;;;;;8.20;6.10;;;16.60;5.80;;;;;;7377431;19;20015;-69
2023/10/19 09:32:26;;;;;;;8.00;5.90;;;16.60;10.10;;;;;;7379616;19;20010;-70
2023/10/19 09:34:57;;;;;;;12.20;6.10;;;16.60;9.10;;;;;;7378932;19;20341;-69
2023/10/19 09:37:29;;;;;;;8.77;6.15;;;16.80;4.50;;;;;;7377725;19;20013;-69
2023/10/19 09:39:59;;;;;;;7.50;5.97;;;16.90;6.00;;;;;;7377771;19;20014;-70
2023/10/19 09:42:31;;;;;;;10.93;6.32;;;17.00;3.90;;;;;;7379822;19;20530;-70
2023/10/19 09:45:08;;;;;;;8.02;5.78;;;17.00;1.90;;;;;;7378809;19;20404;-71
2023/10/19 09:47:41;;;;;;;6.57;5.22;;;17.20;4.90;;;;;;7376908;19;20070;-70
2023/10/19 09:50:12;;;;;;;10.68;5.35;;;17.20;1.00;;;;;;7378910;19;20078;-71
2023/10/19 09:52:42;;;;;;;7.30;5.63;;;17.40;1.00;;;;;;7380886;19;20011;-70
2023/10/19 09:55:19;;;;;;;7.82;5.32;;;17.20;1.00;;;;;;7379630;19;20007;-71
2023/10/19 09:57:54;;;;;;;7.82;5.45;;;17.10;1.00;;;;;;7374448;19;20484;-71
2023/10/19 10:00:31;;;;;;;8.45;5.47;;;17.20;1.00;;;;;;7374234;19;20044;-71
2023/10/19 10:03:02;;;;;;;8.52;5.82;;;17.20;1.00;;;;;;7377232;19;20013;-71
2023/10/19 10:05:48;;;;;;;8.35;6.05;;;17.10;1.00;;;;;;7377713;19;20082;-71
2023/10/19 10:08:34;;;;;;;11.95;7.75;;;17.20;1.00;;;;;;7374784;19;20081;-72
2023/10/19 10:11:21;;;;;;;9.05;6.25;;;17.30;1.80;;;;;;7377344;19;20011;-71
2023/10/19 10:13:55;;;;;;;6.65;5.70;;;17.20;6.10;;;;;;7374563;19;20494;-71
2023/10/19 10:16:30;;;;;;;6.95;5.70;;;17.30;2.10;;;;;;7376229;19;20015;-71
2023/10/19 10:19:03;;;;;;;6.63;5.38;;;17.20;1.00;;;;;;7376920;19;20014;-71
2023/10/19 10:21:34;;;;;;;7.25;5.38;;;17.30;1.00;;;;;;7378048;19;20433;-72
2023/10/19 10:24:06;;;;;;;9.05;6.13;;;17.30;1.00;;;;;;7376860;19;20050;-71
2023/10/19 10:27:00;;;;;;;8.80;5.65;;;17.30;1.00;;;;;;7375346;19;20098;-70
2023/10/19 10:29:31;;;;;;;11.70;5.63;;;17.40;1.00;;;;;;6865026;19;2004664;-71
2023/10/19 10:32:05;;;;;;;7.63;5.57;;;17.40;1.00;;;;;;7378360;19;20266;-71
2023/10/19 10:34:49;;;;;;;9.00;5.22;;;17.30;1.00;;;;;;7378718;19;20032;-71
2023/10/19 10:37:20;;;;;;;8.05;5.05;;;17.40;1.00;;;;;;7374237;19;20757;-71
2023/10/19 10:39:50;;;;;;;8.18;5.18;;;17.50;3.00;;;;;;7375933;19;20013;-71
2023/10/19 10:42:20;;;;;;;7.32;4.72;;;17.60;1.50;;;;;;7377777;19;20089;-71
2023/10/19 10:44:55;;;;;;;7.05;5.43;;;17.70;1.00;;;;;;7376568;19;20007;-72
2023/10/19 10:47:29;;;;;;;7.78;4.90;;;17.70;1.00;;;;;;7376111;19;20446;-71
2023/10/19 10:50:01;;;;;;;6.57;4.40;;;17.80;1.00;;;;;;7374865;19;20432;-71
2023/10/19 10:52:34;;;;;;;5.18;3.95;;;17.80;1.00;;;;;;7376865;19;20011;-71
2023/10/19 10:55:10;;;;;;;7.20;4.57;;;18.00;1.00;;;;;;7375934;19;20524;-71
2023/10/19 10:57:42;;;;;;;7.20;4.07;;;18.00;1.00;;;;;;7376043;19;20015;-71
2023/10/19 11:00:15;;;;;;;4.57;4.00;;;17.90;1.00;;;;;;7376986;19;20086;-70
2023/10/19 11:02:49;;;;;;;6.95;4.13;;;17.90;1.00;;;;;;7378152;19;20412;-71
2023/10/19 11:05:24;;;;;;;9.93;4.22;;;17.80;1.00;;;;;;7375130;19;20082;-70
2023/10/19 11:08:09;;;;;;;7.85;4.10;;;17.80;1.00;;;;;;7374868;19;20636;-71
2023/10/19 11:10:39;;;;;;;9.10;4.50;;;17.80;1.00;;;;;;7374980;19;20049;-71
2023/10/19 11:13:11;;;;;;;8.63;4.32;;;17.80;1.00;;;;;;7374928;19;20094;-71
2023/10/19 11:15:49;;;;;;;8.68;4.45;;;17.80;1.00;;;;;;7372755;19;20078;-72
2023/10/19 11:18:35;;;;;;;6.90;3.97;;;17.80;1.00;;;;;;7376470;19;20011;-71
2023/10/19 11:21:09;;;;;;;9.48;4.65;;;17.70;1.00;;;;;;6864697;19;2004366;-70
2023/10/19 11:23:41;;;;;;;6.90;4.63;;;17.60;1.00;;;;;;7375515;19;20079;-70
2023/10/19 11:26:12;;;;;;;8.48;4.63;;;17.50;1.00;;;;;;7374702;19;20032;-70
2023/10/19 11:28:47;;;;;;;7.00;5.00;;;17.30;1.30;;;;;;7372128;19;20010;-71
2023/10/19 11:31:19;;;;;;;7.38;5.43;;;17.10;12.50;;;;;;7375968;19;20010;-71
2023/10/19 11:33:53;;;;;;;10.52;5.70;;;16.90;20.90;;;;;;7376588;19;20010;-71
2023/10/19 11:36:25;;;;;;;8.10;5.50;;;16.70;36.20;;;;;;7372861;19;20736;-71
2023/10/19 11:38:56;;;;;;;7.20;5.90;;;16.60;56.00;;;;;;7372993;19;20011;-70
2023/10/19 11:41:26;;;;;;;8.57;6.10;;;16.50;66.70;;;;;;7376530;19;20500;-71
2023/10/19 11:43:56;;;;;;;13.68;6.40;;;16.40;90.90;;;;;;7374699;19;20018;-71
2023/10/19 11:46:27;;;;;;;11.05;6.80;;;16.30;99.90;;;;;;7372628;19;20017;-70
2023/10/19 11:48:59;;;;;;;10.07;6.13;;;16.30;99.90;;;;;;7372626;19;20015;-70
2023/10/19 11:51:31;;;;;;;13.75;8.23;;;16.30;99.90;;;;;;7374536;19;20032;-70
2023/10/19 11:54:01;;;;;;;14.05;7.18;;;16.20;99.90;;;;;;7373861;19;20015;-70
2023/10/19 11:56:31;;;;;;;23.00;8.27;;;16.00;99.90;;;;;;7373624;19;20078;-71
2023/10/19 11:59:01;;;;;;;15.65;8.80;;;16.00;99.90;;;;;;7372634;19;20085;-70
2023/10/19 12:01:32;;;;;;;12.75;8.43;;;15.90;99.90;;;;;;7374184;19;20033;-71
2023/10/19 12:04:05;;;;;;;14.65;9.70;;;15.90;99.90;;;;;;7373824;19;20503;-70
2023/10/19 12:06:35;;;;;;;16.30;10.88;;;15.80;99.90;;;;;;7373652;19;20010;-70
2023/10/19 12:09:14;;;;;;;14.73;10.88;;;15.80;99.90;;;;;;7372860;19;20399;-71
2023/10/19 12:11:44;;;;;;;16.13;11.00;;;15.90;99.90;;;;;;7374167;19;20340;-70
2023/10/19 12:14:18;;;;;;;15.77;11.07;;;15.80;99.90;;;;;;7372946;19;20022;-71
2023/10/19 12:16:47;;;;;;;12.93;8.93;;;15.80;99.90;;;;;;7374573;19;20111;-70
2023/10/19 12:19:20;;;;;;;14.05;8.60;;;15.90;99.90;;;;;;7371196;19;20019;-71
2023/10/19 12:21:51;;;;;;;12.45;8.82;;;15.90;99.90;;;;;;7371039;19;20024;-72
2023/10/19 12:24:21;;;;;;;12.45;9.00;;;15.90;99.90;;;;;;7375752;19;20044;-70
2023/10/19 12:26:51;;;;;;;12.98;8.50;;;15.80;99.90;;;;;;7374172;19;20024;-71
2023/10/19 12:29:21;;;;;;;11.98;9.23;;;15.80;99.90;;;;;;7374961;19;20036;-70
2023/10/19 12:31:51;;;;;;;12.00;8.77;;;15.80;99.90;;;;;;7374446;19;20073;-71
2023/10/19 12:34:24;;;;;;;13.30;9.10;;;15.70;99.90;;;;;;7374083;19;20166;-70
2023/10/19 12:36:57;;;;;;;11.93;8.98;;;15.60;99.90;;;;;;7369457;19;20081;-70
2023/10/19 12:39:43;;;;;;;14.48;10.43;;;15.60;99.90;;;;;;7371555;19;20530;-71
2023/10/19 12:42:14;;;;;;;15.00;11.10;;;15.60;99.90;;;;;;7372320;19;20039;-70
2023/10/19 12:44:44;;;;;;;13.60;10.70;;;15.60;99.90;;;;;;7372586;19;20098;-70
2023/10/19 12:47:17;;;;;;;12.98;9.65;;;15.70;99.90;;;;;;7372007;19;20026;-70
2023/10/19 12:49:51;;;;;;;12.15;9.88;;;15.70;99.90;;;;;;7372971;19;20010;-70
2023/10/19 12:52:23;;;;;;;14.23;9.35;;;15.80;99.90;;;;;;7371683;19;20518;-70
2023/10/19 12:55:00;;;;;;;12.75;9.00;;;15.70;99.90;;;;;;7371652;19;20082;-72
2023/10/19 12:57:34;;;;;;;12.65;8.32;;;15.70;99.90;;;;;;7371654;19;20032;-71
2023/10/19 13:00:23;;;;;;;13.45;8.35;;;15.70;99.90;;;;;;7372893;19;20002;-70
2023/10/19 13:02:59;;;;;;;11.40;8.40;;;15.70;99.90;;;;;;7370799;19;20010;-70
2023/10/19 13:05:35;;;;;;;14.30;8.95;;;15.70;99.90;;;;;;7372079;19;20061;-70
2023/10/19 13:08:06;;;;;;;11.32;8.93;;;15.70;99.90;;;;;;7372745;19;20027;-71